This is the latest recevied weather packets stored in our database for station/object LZ1HCO-25. If no packets are shown the sender has not sent any weather packets the latest 1 day(s).
| Time | Temp. | Humidity | Pressure | Rain* | Wind** | Luminosity | Snow |
|---|---|---|---|---|---|---|---|
| 1778002589 | 18.89° C | 61% | 967 hPa | - | 0 m/s | 0 W/m² | - |
| 1778002277 | 18.33° C | 62% | 967 hPa | - | 0 m/s | 0 W/m² | - |
| 1778001966 | 18.89° C | 62% | 967 hPa | - | 0 m/s | 0 W/m² | - |
| 1778001655 | 17.78° C | 69% | 967 hPa | - | 0 m/s | 0 W/m² | - |
| 1778001343 | 18.33° C | 62% | 967 hPa | - | 0 m/s | 0 W/m² | - |
| 1778001032 | 19.44° C | 60% | 966 hPa | - | 0 m/s | 0 W/m² | - |
| 1778000721 | 20.56° C | 52% | 966 hPa | - | 0 m/s | 0 W/m² | - |
| 1778000409 | 21.11° C | 47% | 966 hPa | - | 0 m/s | 0 W/m² | - |
| 1778000098 | 21.11° C | 49% | 966 hPa | - | 0 m/s | 0 W/m² | - |
| 1777999786 | 21.67° C | 44% | 966 hPa | - | 0 m/s | 0 W/m² | - |
| 1777999475 | 21.67° C | 43% | 966 hPa | - | 0 m/s | 0 W/m² | - |
| 1777999164 | 22.22° C | 43% | 966 hPa | - | 0 m/s | 0 W/m² | - |
| 1777998852 | 22.22° C | 43% | 966 hPa | - | 0 m/s | 0 W/m² | - |
| 1777998541 | 22.22° C | 42% | 966 hPa | - | 0 m/s | 0 W/m² | - |
| 1777998230 | 22.22° C | 42% | 966 hPa | - | 0 m/s | 0 W/m² | - |
| 1777997918 | 22.78° C | 41% | 966 hPa | - | 0 m/s | 0 W/m² | - |
| 1777997661 | 22.78° C | 41% | 966 hPa | - | 0 m/s | 0 W/m² | - |
| 1777997350 | 22.78° C | 41% | 966 hPa | - | 0 m/s | 0 W/m² | - |
| 1777997038 | 23.33° C | 40% | 966 hPa | - | 0 m/s | 0 W/m² | - |
| 1777996727 | 23.89° C | 39% | 966 hPa | - | 0 m/s | 0 W/m² | - |
| 1777996415 | 23.89° C | 39% | 966 hPa | - | 0 m/s | 0 W/m² | - |
| 1777996104 | 23.89° C | 39% | 966 hPa | - | 0 m/s | 0 W/m² | - |
| 1777995793 | 23.89° C | 39% | 966 hPa | - | 0 m/s | 0 W/m² | - |
| 1777995481 | 24.44° C | 38% | 966 hPa | - | 0 m/s | 0 W/m² | - |
| 1777995170 | 24.44° C | 37% | 966 hPa | - | 0 m/s | 0 W/m² | - |
* Rain since midnight (hover to see other rain measurements)
** Current wind speed in m/s (hover to see current wind gust speed)